Time;durP1;ratioP1;P1;durP2;ratioP2;P2;SDS_P1;SDS_P2;PMS_P1;PMS_P2;Temp;Humidity;BMP_temperature;BMP_pressure;BME280_temperature;BME280_humidity;BME280_pressure;Samples;Min_cycle;Max_cycle;Signal;HPM_P1;HPM_P2
2023/11/05 00:01:40;;;;;;;2.00;0.47;;;13.30;1.00;;;;;;5061611;28;20392;-85
2023/11/05 00:04:07;;;;;;;2.70;0.60;;;12.10;1.00;;;;;;5069039;28;20450;-88
2023/11/05 00:06:33;;;;;;;4.80;0.80;;;13.80;1.00;;;;;;5047098;28;20415;-89
2023/11/05 00:08:59;;;;;;;1.80;0.60;;;16.10;1.00;;;;;;5040858;28;20409;-87
2023/11/05 00:11:25;;;;;;;2.60;0.80;;;12.90;1.00;;;;;;5058759;28;20809;-86
2023/11/05 00:13:50;;;;;;;2.08;0.50;;;12.00;1.00;;;;;;5060363;28;20392;-85
2023/11/05 00:16:16;;;;;;;2.47;0.68;;;13.10;1.00;;;;;;5059887;28;20810;-87
2023/11/05 00:18:41;;;;;;;2.37;0.50;;;13.20;1.00;;;;;;5075708;28;20438;-87
2023/11/05 00:21:07;;;;;;;1.97;0.70;;;13.40;1.00;;;;;;5080919;28;20394;-87
2023/11/05 00:23:33;;;;;;;1.30;0.50;;;13.30;1.00;;;;;;5047514;28;20556;-86
2023/11/05 00:25:59;;;;;;;2.00;0.70;;;13.10;1.00;;;;;;5079981;28;20941;-86
2023/11/05 00:28:24;;;;;;;1.40;0.80;;;13.40;1.00;;;;;;5086879;28;20413;-85
2023/11/05 00:30:50;;;;;;;1.60;0.50;;;13.20;1.00;;;;;;5078240;28;20396;-86
2023/11/05 00:33:19;;;;;;;2.92;0.80;;;13.50;1.00;;;;;;5081963;28;20393;-88
2023/11/05 00:35:45;;;;;;;4.38;0.82;;;13.90;1.00;;;;;;5049625;28;20415;-87
2023/11/05 00:38:17;;;;;;;2.40;0.80;;;;;;;;;;5043134;28;20392;-86
2023/11/05 00:40:45;;;;;;;2.78;0.70;;;13.80;1.00;;;;;;5062648;28;20827;-86
2023/11/05 00:43:16;;;;;;;2.55;0.90;;;14.00;1.00;;;;;;5081138;28;20406;-89
2023/11/05 00:45:58;;;;;;;1.20;0.70;;;13.80;1.00;;;;;;5056412;28;20385;-88
2023/11/05 00:48:23;;;;;;;2.20;0.70;;;14.10;1.00;;;;;;5076812;22;20466;-85
2023/11/05 00:50:49;;;;;;;3.10;0.70;;;14.00;1.00;;;;;;5035884;28;20422;-83
2023/11/05 00:53:14;;;;;;;2.10;0.80;;;14.00;1.00;;;;;;5042381;28;20389;-84
2023/11/05 00:55:40;;;;;;;2.40;0.80;;;13.30;1.00;;;;;;5037186;28;20378;-84
2023/11/05 00:58:06;;;;;;;1.75;0.60;;;14.40;1.00;;;;;;5046307;28;20395;-84
2023/11/05 01:00:31;;;;;;;4.35;1.10;;;14.20;1.00;;;;;;5046752;28;20382;-84
2023/11/05 01:02:57;;;;;;;2.20;0.70;;;14.10;1.00;;;;;;5068625;28;20382;-85
2023/11/05 01:05:22;;;;;;;2.03;0.60;;;14.10;1.00;;;;;;5072733;28;20467;-84
2023/11/05 01:07:48;;;;;;;3.30;0.80;;;14.00;1.00;;;;;;5072294;28;20455;-83
2023/11/05 01:10:13;;;;;;;2.58;0.70;;;14.30;1.00;;;;;;5073802;28;20474;-83
2023/11/05 01:12:39;;;;;;;2.22;0.95;;;13.90;1.00;;;;;;5067462;28;20382;-85
2023/11/05 01:15:05;;;;;;;2.60;0.90;;;14.00;1.00;;;;;;5069812;28;20393;-84
2023/11/05 01:17:31;;;;;;;4.63;1.25;;;14.10;1.00;;;;;;5054668;28;20402;-84
2023/11/05 01:19:56;;;;;;;2.17;0.63;;;15.10;1.00;;;;;;5047636;28;20430;-84
2023/11/05 01:22:22;;;;;;;4.00;0.80;;;14.20;1.00;;;;;;5052924;28;20432;-84
2023/11/05 01:24:48;;;;;;;2.23;1.00;;;14.20;1.00;;;;;;5068038;28;20468;-83
2023/11/05 01:27:13;;;;;;;1.90;0.80;;;14.40;1.00;;;;;;5069471;28;20461;-84
2023/11/05 01:29:39;;;;;;;2.80;0.80;;;14.40;1.00;;;;;;5069904;28;20393;-84
2023/11/05 01:32:06;;;;;;;2.35;0.90;;;14.50;1.00;;;;;;5067608;28;20404;-82
2023/11/05 01:34:32;;;;;;;3.30;0.60;;;14.50;1.00;;;;;;5050829;28;20398;-84
2023/11/05 01:36:57;;;;;;;2.90;0.90;;;14.60;1.00;;;;;;5049486;28;20395;-83
2023/11/05 01:39:23;;;;;;;4.17;0.90;;;14.60;1.00;;;;;;5048287;28;20395;-83
2023/11/05 01:41:48;;;;;;;1.30;0.70;;;14.50;1.00;;;;;;5048840;28;20400;-85
2023/11/05 01:44:14;;;;;;;2.70;0.82;;;14.50;1.00;;;;;;5055929;28;20610;-83
2023/11/05 01:46:39;;;;;;;2.92;0.70;;;14.40;1.00;;;;;;5041580;28;20418;-83
2023/11/05 01:49:05;;;;;;;1.83;0.60;;;14.50;1.00;;;;;;5051524;28;20471;-83
2023/11/05 01:51:31;;;;;;;2.33;0.70;;;14.50;1.00;;;;;;5057944;28;20452;-83
2023/11/05 01:53:57;;;;;;;1.10;0.50;;;14.40;1.00;;;;;;5064022;28;20405;-82
2023/11/05 01:56:25;;;;;;;2.45;0.80;;;14.60;1.00;;;;;;5062101;28;20397;-83
2023/11/05 01:58:52;;;;;;;1.57;0.60;;;14.20;1.00;;;;;;5065709;28;20382;-83
2023/11/05 02:01:17;;;;;;;2.42;0.75;;;14.30;1.00;;;;;;5053518;28;20470;-84
2023/11/05 02:03:43;;;;;;;1.35;0.50;;;15.00;1.00;;;;;;5044140;28;20387;-83
2023/11/05 02:06:10;;;;;;;2.10;1.17;;;14.20;1.00;;;;;;5044546;28;20414;-84
2023/11/05 02:08:38;;;;;;;1.60;0.60;;;14.00;1.00;;;;;;5036167;28;20387;-84
2023/11/05 02:11:04;;;;;;;1.25;0.60;;;14.10;1.00;;;;;;5047487;28;20451;-83
2023/11/05 02:13:55;;;;;;;1.63;0.60;;;14.20;1.00;;;;;;5055255;28;20385;-84
2023/11/05 02:16:23;;;;;;;4.40;1.00;;;14.30;1.00;;;;;;5050767;28;20420;-83
2023/11/05 02:18:50;;;;;;;1.52;0.77;;;14.40;1.00;;;;;;5052618;28;20433;-84
2023/11/05 02:21:26;;;;;;;2.70;0.90;;;13.40;1.00;;;;;;5037229;28;20832;-84
2023/11/05 02:23:51;;;;;;;2.10;0.65;;;14.30;1.00;;;;;;5034475;28;20401;-83
2023/11/05 02:26:17;;;;;;;2.00;0.50;;;14.40;1.00;;;;;;5035157;28;20498;-84
2023/11/05 02:28:43;;;;;;;1.00;0.60;;;14.60;1.00;;;;;;5043040;28;20386;-84
2023/11/05 02:31:08;;;;;;;2.90;0.80;;;13.90;1.00;;;;;;5054906;28;20401;-84
2023/11/05 02:33:41;;;;;;;3.83;0.70;;;13.60;1.00;;;;;;5056050;28;20373;-84
2023/11/05 02:36:07;;;;;;;1.77;0.80;;;14.30;1.00;;;;;;5050819;28;20461;-84
2023/11/05 02:38:32;;;;;;;2.60;0.70;;;14.50;1.00;;;;;;5053732;28;20420;-84
2023/11/05 02:40:58;;;;;;;1.40;0.60;;;14.40;1.00;;;;;;5044636;28;20403;-85
2023/11/05 02:43:23;;;;;;;0.87;0.57;;;14.30;1.00;;;;;;5036571;28;20450;-83
2023/11/05 02:45:49;;;;;;;3.10;0.90;;;14.10;1.00;;;;;;5049653;28;20417;-83
2023/11/05 02:48:14;;;;;;;2.67;0.60;;;14.40;1.00;;;;;;5056947;28;20943;-84
2023/11/05 02:50:40;;;;;;;3.15;0.90;;;14.20;1.00;;;;;;5057582;28;20377;-86
2023/11/05 02:53:06;;;;;;;1.30;0.70;;;14.60;1.00;;;;;;5038115;28;20398;-84
2023/11/05 02:55:31;;;;;;;1.53;0.70;;;14.40;1.00;;;;;;5045792;28;20541;-81
2023/11/05 02:57:57;;;;;;;2.50;0.50;;;14.40;1.00;;;;;;5058888;28;20401;-84
2023/11/05 03:00:25;;;;;;;2.97;0.80;;;14.30;1.00;;;;;;5055965;28;20564;-84
2023/11/05 03:02:50;;;;;;;2.10;0.70;;;14.30;1.00;;;;;;5050537;28;20429;-83
2023/11/05 03:05:16;;;;;;;2.63;0.80;;;14.20;1.00;;;;;;5040300;28;20382;-83
2023/11/05 03:07:41;;;;;;;3.10;0.90;;;13.90;1.00;;;;;;5037318;28;20414;-84
2023/11/05 03:10:07;;;;;;;2.30;0.60;;;14.00;1.00;;;;;;5036360;28;20751;-84
2023/11/05 03:12:34;;;;;;;1.20;0.60;;;14.00;1.00;;;;;;5039716;28;20393;-84
2023/11/05 03:15:00;;;;;;;1.57;0.70;;;12.80;1.00;;;;;;5043878;28;20406;-84
2023/11/05 03:17:25;;;;;;;2.10;0.50;;;13.20;1.00;;;;;;5038157;28;20779;-84
2023/11/05 03:19:51;;;;;;;1.58;0.50;;;13.60;1.00;;;;;;5034557;28;20604;-84
2023/11/05 03:22:17;;;;;;;1.40;0.80;;;13.40;1.00;;;;;;5036607;28;20391;-84
2023/11/05 03:24:45;;;;;;;1.80;0.40;;;13.60;1.00;;;;;;5036564;28;20470;-83
2023/11/05 03:27:10;;;;;;;2.20;0.60;;;13.50;1.00;;;;;;5037278;28;20470;-83
2023/11/05 03:29:36;;;;;;;2.30;0.60;;;13.50;1.00;;;;;;5039884;28;20395;-84
2023/11/05 03:32:02;;;;;;;1.50;0.60;;;13.40;1.00;;;;;;5038111;28;20449;-84
2023/11/05 03:34:28;;;;;;;1.63;0.65;;;13.20;1.00;;;;;;5043317;28;20397;-83
2023/11/05 03:36:53;;;;;;;2.05;0.50;;;13.40;1.00;;;;;;5056839;28;20389;-83
2023/11/05 03:39:19;;;;;;;3.10;1.10;;;13.30;1.00;;;;;;5058034;28;20413;-83
2023/11/05 03:41:44;;;;;;;1.40;0.67;;;13.00;1.00;;;;;;5060087;28;20389;-84
2023/11/05 03:44:10;;;;;;;1.75;0.45;;;13.00;1.00;;;;;;5043923;28;20906;-83
2023/11/05 03:46:39;;;;;;;2.17;0.65;;;12.80;1.00;;;;;;5038241;28;20445;-83
2023/11/05 03:49:05;;;;;;;1.60;0.80;;;12.90;1.00;;;;;;5040594;28;20391;-83
2023/11/05 03:51:30;;;;;;;1.90;0.50;;;12.90;1.00;;;;;;5037634;28;20398;-83
2023/11/05 03:53:56;;;;;;;2.97;1.00;;;12.70;1.00;;;;;;5035900;28;20390;-83
2023/11/05 03:56:22;;;;;;;2.90;0.70;;;12.90;1.00;;;;;;5041247;28;20933;-82
2023/11/05 03:58:47;;;;;;;1.80;0.57;;;12.90;1.00;;;;;;5037661;28;20423;-83
2023/11/05 04:01:20;;;;;;;2.77;0.50;;;12.50;1.00;;;;;;5041234;28;20775;-83
2023/11/05 04:03:45;;;;;;;1.80;0.50;;;12.80;1.00;;;;;;5039607;28;20387;-82
2023/11/05 04:06:11;;;;;;;2.05;0.60;;;12.90;1.00;;;;;;5058361;28;20451;-83
2023/11/05 04:08:36;;;;;;;2.25;0.73;;;12.50;1.00;;;;;;5056866;28;20407;-85
2023/11/05 04:11:02;;;;;;;1.73;0.50;;;13.10;1.00;;;;;;5053112;28;20392;-84
2023/11/05 04:13:28;;;;;;;1.50;0.50;;;12.90;1.00;;;;;;5034630;28;20398;-83
2023/11/05 04:15:54;;;;;;;0.70;0.50;;;11.90;1.00;;;;;;5038469;28;20383;-84
2023/11/05 04:18:19;;;;;;;1.60;0.50;;;12.30;1.00;;;;;;5051578;28;20385;-85
2023/11/05 04:20:45;;;;;;;1.90;0.60;;;12.10;1.00;;;;;;5055387;28;20396;-84
2023/11/05 04:23:11;;;;;;;2.00;0.40;;;11.80;1.00;;;;;;5054910;28;20393;-84
2023/11/05 04:25:37;;;;;;;1.60;0.68;;;11.90;1.00;;;;;;5052707;28;20393;-84
2023/11/05 04:28:04;;;;;;;1.20;0.40;;;11.90;1.00;;;;;;5052704;28;20409;-84
2023/11/05 04:30:30;;;;;;;1.33;0.52;;;11.70;1.00;;;;;;5042004;28;20399;-84
2023/11/05 04:32:55;;;;;;;1.90;0.40;;;11.60;1.00;;;;;;5033475;28;20398;-84
2023/11/05 04:35:21;;;;;;;1.60;0.50;;;11.50;1.00;;;;;;5034729;28;20393;-83
2023/11/05 04:37:46;;;;;;;1.90;0.50;;;11.70;1.00;;;;;;5034141;28;20391;-84
2023/11/05 04:40:12;;;;;;;2.10;0.43;;;12.10;1.00;;;;;;5039848;28;20455;-83
2023/11/05 04:42:37;;;;;;;1.90;0.40;;;12.00;1.00;;;;;;5034309;28;20391;-84
2023/11/05 04:45:03;;;;;;;1.50;0.40;;;11.80;1.00;;;;;;5033064;28;20423;-84
2023/11/05 04:47:29;;;;;;;0.88;0.40;;;11.90;1.00;;;;;;5034745;28;20414;-84
2023/11/05 04:49:54;;;;;;;1.00;0.40;;;12.10;1.00;;;;;;5038259;28;20420;-84
2023/11/05 04:52:20;;;;;;;0.80;0.30;;;12.20;1.00;;;;;;5039165;28;20387;-83
2023/11/05 04:54:46;;;;;;;1.00;0.40;;;12.40;1.00;;;;;;5034661;28;20456;-84
2023/11/05 04:57:11;;;;;;;0.98;0.40;;;12.40;1.00;;;;;;5042929;28;20969;-84
2023/11/05 04:59:41;;;;;;;0.50;0.30;;;12.90;1.00;;;;;;5034822;28;20379;-83
2023/11/05 05:02:07;;;;;;;0.60;0.30;;;12.40;1.00;;;;;;5035648;28;20395;-84
2023/11/05 05:04:33;;;;;;;1.20;0.30;;;12.30;1.00;;;;;;5035847;28;20379;-84
2023/11/05 05:06:59;;;;;;;0.60;0.25;;;11.70;1.00;;;;;;5045163;28;20450;-84
2023/11/05 05:09:24;;;;;;;0.60;0.30;;;12.30;1.00;;;;;;5054217;28;20411;-84
2023/11/05 05:11:50;;;;;;;0.80;0.40;;;12.00;1.00;;;;;;5053203;28;20381;-84
2023/11/05 05:14:15;;;;;;;0.50;0.30;;;12.20;1.00;;;;;;5032345;28;20402;-84
2023/11/05 05:16:41;;;;;;;0.93;0.30;;;11.80;1.00;;;;;;5032970;28;20441;-84
2023/11/05 05:19:06;;;;;;;0.77;0.50;;;12.10;1.00;;;;;;5030967;28;20398;-83
2023/11/05 05:21:32;;;;;;;0.80;0.50;;;12.00;1.00;;;;;;5032647;28;20387;-84
2023/11/05 05:23:57;;;;;;;0.40;0.30;;;12.10;1.00;;;;;;5036818;28;20403;-84
2023/11/05 05:26:23;;;;;;;0.80;0.30;;;12.30;1.00;;;;;;5037561;28;20402;-84
2023/11/05 05:28:49;;;;;;;0.40;0.30;;;12.40;1.00;;;;;;5034390;28;20383;-83
2023/11/05 05:31:15;;;;;;;0.50;0.40;;;12.30;1.00;;;;;;5032394;28;20480;-84
2023/11/05 05:33:41;;;;;;;0.80;0.30;;;12.20;1.00;;;;;;5032417;28;20391;-85
2023/11/05 05:36:07;;;;;;;0.90;0.25;;;12.00;1.00;;;;;;5034361;28;20399;-83
2023/11/05 05:38:33;;;;;;;0.60;0.30;;;12.60;1.00;;;;;;5049540;28;20392;-84
2023/11/05 05:40:59;;;;;;;1.50;0.30;;;12.40;1.00;;;;;;5055899;28;20385;-84
2023/11/05 05:43:25;;;;;;;1.00;0.40;;;12.30;1.00;;;;;;5069689;28;20405;-83
2023/11/05 05:45:50;;;;;;;0.60;0.30;;;11.60;1.00;;;;;;5070713;28;20392;-83
2023/11/05 05:48:16;;;;;;;0.50;0.30;;;12.30;1.00;;;;;;5067847;28;20409;-84
2023/11/05 05:50:41;;;;;;;0.40;0.20;;;12.30;1.00;;;;;;5063452;28;20382;-83
2023/11/05 05:53:07;;;;;;;0.40;0.30;;;12.30;1.00;;;;;;5070589;28;20377;-82
2023/11/05 05:55:32;;;;;;;0.40;0.20;;;12.30;1.00;;;;;;5046523;28;20391;-84
2023/11/05 05:57:59;;;;;;;0.80;0.30;;;12.40;1.00;;;;;;5041391;28;20400;-82
2023/11/05 06:00:24;;;;;;;0.60;0.30;;;12.50;1.00;;;;;;5055871;28;20408;-83
2023/11/05 06:02:50;;;;;;;0.50;0.30;;;12.50;1.00;;;;;;5055500;28;20382;-83
2023/11/05 06:05:16;;;;;;;0.50;0.30;;;12.50;1.00;;;;;;5041095;28;20438;-83
2023/11/05 06:07:42;;;;;;;0.40;0.30;;;12.70;1.00;;;;;;5053045;28;20413;-84
2023/11/05 06:10:09;;;;;;;0.50;0.30;;;12.80;1.00;;;;;;5053781;28;20499;-83
2023/11/05 06:12:35;;;;;;;0.90;0.40;;;12.70;1.00;;;;;;5056449;28;20398;-84
2023/11/05 06:15:02;;;;;;;0.50;0.30;;;12.70;1.00;;;;;;5063402;28;20445;-84
2023/11/05 06:17:27;;;;;;;0.50;0.20;;;12.70;1.00;;;;;;5040914;28;20399;-82
2023/11/05 06:19:53;;;;;;;0.70;0.30;;;12.70;1.00;;;;;;5044008;28;20483;-83
2023/11/05 06:22:18;;;;;;;1.00;0.40;;;12.70;1.00;;;;;;5057863;28;20472;-84
2023/11/05 06:24:44;;;;;;;0.40;0.20;;;13.30;1.00;;;;;;5053388;28;20842;-84
2023/11/05 06:27:09;;;;;;;0.50;0.30;;;12.70;1.00;;;;;;5035957;28;20395;-84
2023/11/05 06:29:35;;;;;;;2.80;0.50;;;12.70;1.00;;;;;;5038195;28;20908;-83
2023/11/05 06:32:00;;;;;;;1.70;0.40;;;12.60;1.00;;;;;;5045979;28;20398;-84
2023/11/05 06:34:26;;;;;;;1.00;0.30;;;12.60;1.00;;;;;;5036044;28;20393;-84
2023/11/05 06:36:59;;;;;;;2.20;0.27;;;12.50;1.00;;;;;;5035588;28;20449;-82
2023/11/05 06:39:27;;;;;;;0.60;0.30;;;12.50;1.00;;;;;;5037337;28;20397;-83
2023/11/05 06:41:53;;;;;;;0.60;0.30;;;11.70;1.00;;;;;;5053945;28;20476;-84
2023/11/05 06:44:19;;;;;;;1.00;0.30;;;12.40;1.00;;;;;;5045332;28;20398;-83
2023/11/05 06:46:45;;;;;;;0.40;0.30;;;11.90;1.00;;;;;;5034482;28;20407;-84
2023/11/05 06:49:10;;;;;;;0.68;0.30;;;12.30;1.00;;;;;;5047451;28;20915;-82
2023/11/05 06:51:36;;;;;;;1.00;0.30;;;12.20;1.00;;;;;;5043945;28;20541;-84
2023/11/05 06:54:02;;;;;;;0.50;0.30;;;11.20;1.00;;;;;;5046755;28;20399;-84
2023/11/05 06:56:27;;;;;;;0.70;0.30;;;12.10;1.00;;;;;;5032369;28;20445;-85
2023/11/05 06:58:53;;;;;;;0.43;0.23;;;12.10;1.00;;;;;;5032685;28;20470;-84
2023/11/05 07:01:18;;;;;;;0.90;0.30;;;12.10;1.00;;;;;;5033766;28;20383;-84
2023/11/05 07:03:44;;;;;;;1.50;0.30;;;12.00;1.00;;;;;;5037048;28;20464;-85
2023/11/05 07:06:12;;;;;;;0.60;0.30;;;11.90;1.00;;;;;;5035014;28;20432;-83
2023/11/05 07:08:38;;;;;;;0.80;0.32;;;11.90;1.00;;;;;;5033962;28;20387;-85
2023/11/05 07:11:05;;;;;;;0.50;0.30;;;11.90;1.00;;;;;;5032222;28;20384;-85
2023/11/05 07:13:31;;;;;;;0.90;0.32;;;11.90;1.00;;;;;;5040056;28;20744;-84
2023/11/05 07:15:57;;;;;;;1.50;0.50;;;11.80;1.00;;;;;;5030036;28;20397;-85
2023/11/05 07:18:22;;;;;;;1.00;0.33;;;11.60;1.00;;;;;;5056744;28;20439;-85
2023/11/05 07:20:48;;;;;;;0.80;0.30;;;11.70;1.00;;;;;;5053876;28;20420;-85
2023/11/05 07:23:14;;;;;;;0.40;0.30;;;11.50;1.00;;;;;;5050495;28;20412;-85
2023/11/05 07:25:40;;;;;;;0.50;0.30;;;11.50;1.00;;;;;;5048756;28;20424;-85
2023/11/05 07:28:06;;;;;;;0.60;0.60;;;12.20;1.00;;;;;;5052139;28;20437;-85
2023/11/05 07:30:31;;;;;;;1.00;0.30;;;11.50;1.00;;;;;;5054329;28;20396;-85
2023/11/05 07:32:57;;;;;;;1.50;0.50;;;11.40;1.00;;;;;;5052141;28;20905;-85
2023/11/05 07:35:23;;;;;;;0.45;0.30;;;11.50;1.00;;;;;;5056180;28;20389;-84
2023/11/05 07:37:49;;;;;;;0.63;0.40;;;11.40;1.00;;;;;;5041925;28;20934;-84
2023/11/05 07:40:15;;;;;;;0.80;0.40;;;11.50;1.00;;;;;;5053749;28;20382;-84
2023/11/05 07:42:41;;;;;;;0.95;0.30;;;11.50;1.00;;;;;;5047065;28;20418;-86
2023/11/05 07:45:08;;;;;;;0.85;0.47;;;11.50;1.00;;;;;;5047811;28;20406;-85
2023/11/05 07:47:33;;;;;;;0.50;0.30;;;11.60;1.00;;;;;;5048088;28;20427;-88
2023/11/05 07:49:59;;;;;;;0.60;0.40;;;11.50;1.00;;;;;;5050677;28;20408;-86
2023/11/05 07:52:24;;;;;;;1.20;0.40;;;11.50;1.00;;;;;;5041380;28;20474;-84
2023/11/05 07:54:53;;;;;;;0.70;0.40;;;11.60;1.00;;;;;;5040764;28;20411;-86
2023/11/05 07:57:18;;;;;;;0.75;0.30;;;11.50;1.00;;;;;;5039513;28;20764;-85
2023/11/05 07:59:45;;;;;;;1.20;0.30;;;11.40;1.00;;;;;;5039197;28;20389;-84
2023/11/05 08:02:10;;;;;;;1.02;0.40;;;11.40;1.00;;;;;;5037626;28;20415;-85
2023/11/05 08:04:36;;;;;;;0.60;0.40;;;11.20;1.00;;;;;;5038108;28;20386;-85
2023/11/05 08:07:01;;;;;;;0.90;0.30;;;12.00;1.00;;;;;;5051890;28;20439;-86
2023/11/05 08:09:27;;;;;;;0.97;0.30;;;11.50;1.00;;;;;;5032117;28;21100;-85
2023/11/05 08:11:55;;;;;;;1.40;0.40;;;11.50;1.00;;;;;;5034459;28;20449;-85
2023/11/05 08:14:21;;;;;;;1.80;0.40;;;11.60;1.00;;;;;;5056911;28;20396;-85
2023/11/05 08:16:46;;;;;;;1.27;0.50;;;11.50;1.00;;;;;;5040731;28;20800;-85
2023/11/05 08:19:12;;;;;;;0.70;0.30;;;11.60;1.00;;;;;;5038385;28;20391;-85
2023/11/05 08:21:38;;;;;;;0.93;0.50;;;11.60;1.00;;;;;;5036688;28;20399;-84
2023/11/05 08:24:04;;;;;;;0.67;0.40;;;11.50;1.00;;;;;;5035614;28;20417;-85
2023/11/05 08:26:30;;;;;;;0.90;0.30;;;11.60;1.00;;;;;;5035940;28;20858;-83
2023/11/05 08:28:56;;;;;;;2.90;0.60;;;11.60;1.00;;;;;;5035377;28;20402;-84
2023/11/05 08:31:22;;;;;;;0.70;0.40;;;11.70;1.00;;;;;;5045360;28;21039;-85
2023/11/05 08:33:47;;;;;;;0.90;0.40;;;11.70;1.00;;;;;;5055776;28;20439;-85
2023/11/05 08:36:13;;;;;;;0.40;0.30;;;11.70;1.00;;;;;;5053274;28;20382;-85
2023/11/05 08:38:38;;;;;;;0.60;0.40;;;11.70;1.00;;;;;;5048667;28;20388;-84
2023/11/05 08:41:04;;;;;;;0.80;0.40;;;11.70;1.00;;;;;;5043468;28;20397;-85
2023/11/05 08:43:30;;;;;;;1.15;0.30;;;11.70;1.00;;;;;;5056794;28;20389;-86
2023/11/05 08:45:55;;;;;;;1.27;0.50;;;11.70;1.00;;;;;;5055610;28;20389;-85
2023/11/05 08:48:21;;;;;;;1.33;0.57;;;11.70;1.00;;;;;;5034026;28;20502;-86
2023/11/05 08:50:46;;;;;;;1.60;0.50;;;11.70;1.00;;;;;;5040831;28;20389;-84
2023/11/05 08:53:12;;;;;;;0.50;0.40;;;11.60;1.00;;;;;;5055118;28;20386;-84
2023/11/05 08:55:37;;;;;;;0.93;0.50;;;11.50;1.00;;;;;;5045507;28;20406;-83
2023/11/05 08:58:03;;;;;;;1.42;0.50;;;11.80;1.00;;;;;;5038270;28;20448;-85
2023/11/05 09:00:32;;;;;;;2.50;0.50;;;11.50;1.00;;;;;;5035679;28;20402;-85
2023/11/05 09:02:59;;;;;;;0.80;0.40;;;10.80;1.00;;;;;;5035888;28;20391;-86
2023/11/05 09:05:25;;;;;;;0.60;0.47;;;11.50;1.00;;;;;;5038987;28;20410;-85
2023/11/05 09:07:51;;;;;;;1.90;0.60;;;11.50;1.00;;;;;;5036195;28;20775;-86
2023/11/05 09:10:18;;;;;;;0.90;0.40;;;11.50;1.00;;;;;;5039287;28;20379;-84
2023/11/05 09:12:44;;;;;;;1.60;0.50;;;11.60;1.00;;;;;;5033442;28;20997;-86
2023/11/05 09:15:10;;;;;;;0.70;0.50;;;11.50;1.00;;;;;;5041890;28;20391;-85
2023/11/05 09:17:36;;;;;;;1.10;0.60;;;11.50;1.00;;;;;;5036193;28;20405;-85
2023/11/05 09:20:03;;;;;;;1.60;0.60;;;11.30;1.00;;;;;;5039046;28;20398;-85
2023/11/05 09:22:29;;;;;;;0.80;0.73;;;11.20;1.00;;;;;;5047575;28;20420;-87
2023/11/05 09:24:57;;;;;;;1.38;0.52;;;11.30;1.00;;;;;;5053486;28;20389;-86
2023/11/05 09:27:22;;;;;;;2.20;0.60;;;11.40;1.00;;;;;;5053958;28;20417;-86
2023/11/05 09:29:48;;;;;;;2.60;0.80;;;11.50;1.00;;;;;;5060340;28;20915;-85
2023/11/05 09:32:14;;;;;;;1.02;0.70;;;11.50;1.00;;;;;;5064831;28;20389;-87
2023/11/05 09:34:39;;;;;;;1.00;0.60;;;11.70;1.00;;;;;;5055897;28;20430;-85
2023/11/05 09:37:05;;;;;;;1.70;0.40;;;11.80;1.00;;;;;;5059195;28;20393;-86
2023/11/05 09:39:31;;;;;;;1.13;0.50;;;11.90;1.00;;;;;;5040403;28;20767;-86
2023/11/05 09:41:57;;;;;;;1.80;0.57;;;12.00;1.00;;;;;;5037149;28;20817;-85
2023/11/05 09:44:22;;;;;;;0.90;0.50;;;12.00;1.00;;;;;;5035347;28;20414;-85
2023/11/05 09:46:51;;;;;;;1.20;0.60;;;12.10;1.00;;;;;;5040614;28;20490;-85
2023/11/05 09:49:16;;;;;;;1.80;0.80;;;12.20;1.00;;;;;;5041137;28;20405;-85
2023/11/05 09:51:48;;;;;;;2.10;0.60;;;12.20;1.00;;;;;;5036401;28;20430;-86
2023/11/05 09:54:14;;;;;;;0.93;0.63;;;12.30;1.00;;;;;;5034352;28;20383;-85
2023/11/05 09:56:41;;;;;;;0.90;0.40;;;12.50;1.00;;;;;;5035079;28;20387;-85
2023/11/05 09:59:06;;;;;;;1.52;0.60;;;12.60;1.00;;;;;;5035727;28;20399;-86
2023/11/05 10:01:35;;;;;;;0.70;0.40;;;12.10;1.00;;;;;;5035530;28;20399;-85
2023/11/05 10:04:04;;;;;;;1.80;0.50;;;12.60;1.00;;;;;;5035943;28;20910;-85
2023/11/05 10:06:30;;;;;;;1.10;0.50;;;12.70;1.00;;;;;;5040185;28;20412;-86
2023/11/05 10:08:55;;;;;;;0.50;0.40;;;12.60;1.00;;;;;;5036815;28;20385;-85
2023/11/05 10:11:21;;;;;;;3.10;0.40;;;12.70;1.00;;;;;;5056163;28;20386;-86
2023/11/05 10:13:51;;;;;;;0.90;0.40;;;12.70;1.00;;;;;;5040933;28;20875;-85
2023/11/05 10:16:18;;;;;;;0.87;0.50;;;12.60;1.00;;;;;;5038451;28;20394;-85
2023/11/05 10:18:44;;;;;;;0.75;0.60;;;12.70;1.00;;;;;;5066184;28;20365;-84
2023/11/05 10:21:11;;;;;;;1.80;0.50;;;12.70;1.00;;;;;;5072905;28;20901;-85
2023/11/05 10:23:54;;;;;;;0.80;0.40;;;12.60;1.00;;;;;;5071581;28;20381;-85
2023/11/05 10:26:30;;;;;;;1.70;0.50;;;12.70;1.00;;;;;;5067754;28;20769;-85
2023/11/05 10:28:57;;;;;;;1.55;0.57;;;12.80;1.00;;;;;;5054639;28;20396;-85
2023/11/05 10:31:24;;;;;;;1.80;0.50;;;12.60;1.00;;;;;;5037364;28;20418;-86
2023/11/05 10:33:55;;;;;;;1.05;0.50;;;12.90;1.00;;;;;;5038590;28;20391;-84
2023/11/05 10:36:21;;;;;;;0.60;0.50;;;12.00;1.00;;;;;;5053036;28;20390;-87
2023/11/05 10:38:51;;;;;;;1.10;0.40;;;12.80;1.00;;;;;;5055257;28;20420;-84
2023/11/05 10:41:17;;;;;;;1.00;0.50;;;12.80;1.00;;;;;;5034914;28;20388;-84
2023/11/05 10:43:48;;;;;;;0.82;0.40;;;12.80;1.00;;;;;;5038057;28;20387;-84
2023/11/05 10:46:19;;;;;;;0.90;0.40;;;12.80;1.00;;;;;;5042560;28;20420;-85
2023/11/05 10:48:47;;;;;;;1.40;0.63;;;12.80;1.00;;;;;;5046184;28;20936;-86
2023/11/05 10:51:16;;;;;;;1.20;0.52;;;12.60;1.00;;;;;;5037350;28;20868;-85
2023/11/05 10:53:43;;;;;;;2.30;0.47;;;12.90;1.00;;;;;;5038815;28;20390;-85
2023/11/05 10:56:38;;;;;;;0.98;0.55;;;13.00;1.00;;;;;;5045396;28;20403;-85
2023/11/05 10:59:04;;;;;;;1.50;0.50;;;12.90;1.00;;;;;;5033162;28;20393;-85
2023/11/05 11:01:32;;;;;;;1.70;0.40;;;13.00;1.00;;;;;;5055194;28;20385;-86
2023/11/05 11:04:15;;;;;;;1.20;0.43;;;12.90;1.00;;;;;;5054886;28;20397;-84
2023/11/05 11:06:44;;;;;;;1.70;0.60;;;13.00;1.00;;;;;;5045817;28;20406;-85
2023/11/05 11:09:19;;;;;;;1.55;0.70;;;13.00;1.00;;;;;;5056149;28;20749;-85
2023/11/05 11:11:45;;;;;;;2.70;0.60;;;13.00;1.00;;;;;;5062322;28;20409;-85
2023/11/05 11:14:11;;;;;;;2.40;0.60;;;13.10;1.00;;;;;;5077210;28;20385;-86
2023/11/05 11:16:40;;;;;;;0.80;0.50;;;13.00;1.00;;;;;;5077002;28;20390;-86
2023/11/05 11:19:14;;;;;;;1.83;0.50;;;13.00;1.00;;;;;;5063826;28;20379;-86
2023/11/05 11:21:50;;;;;;;1.13;0.40;;;13.10;1.00;;;;;;5057541;28;20363;-85
2023/11/05 11:24:36;;;;;;;0.70;0.32;;;13.00;1.00;;;;;;5077594;28;20405;-86
2023/11/05 11:27:05;;;;;;;0.90;0.30;;;13.00;1.00;;;;;;5071982;28;20419;-85
2023/11/05 11:29:38;;;;;;;1.20;0.50;;;13.00;1.00;;;;;;5074174;28;20389;-86
2023/11/05 11:32:04;;;;;;;1.83;0.70;;;12.90;1.00;;;;;;5067106;28;20390;-85
2023/11/05 11:34:31;;;;;;;0.40;0.30;;;12.90;1.00;;;;;;5059829;28;20392;-85
2023/11/05 11:37:04;;;;;;;1.55;0.60;;;12.90;1.00;;;;;;5047155;28;20403;-85
2023/11/05 11:39:30;;;;;;;1.80;0.40;;;12.90;1.00;;;;;;5049714;28;20391;-85
2023/11/05 11:41:56;;;;;;;0.90;0.52;;;12.90;1.00;;;;;;5038608;28;20771;-85
2023/11/05 11:44:22;;;;;;;1.27;0.50;;;12.90;1.00;;;;;;5038142;28;20422;-86
2023/11/05 11:46:49;;;;;;;1.25;0.55;;;12.50;1.00;;;;;;5037595;28;20499;-87
2023/11/05 11:49:14;;;;;;;2.30;0.60;;;12.90;1.00;;;;;;5047475;28;20901;-85
2023/11/05 11:51:40;;;;;;;1.92;0.75;;;13.00;1.00;;;;;;5046566;28;20401;-85
2023/11/05 11:54:08;;;;;;;1.45;0.40;;;12.20;1.00;;;;;;5042639;28;20380;-86
2023/11/05 11:56:34;;;;;;;1.83;0.50;;;12.90;1.00;;;;;;5043291;28;20398;-85
2023/11/05 11:59:04;;;;;;;0.85;0.40;;;13.10;1.00;;;;;;5054630;28;20393;-85
2023/11/05 12:01:31;;;;;;;2.67;0.88;;;13.10;1.00;;;;;;5039753;28;20391;-85
2023/11/05 12:03:58;;;;;;;2.72;1.05;;;13.00;1.00;;;;;;5043440;28;20399;-85
2023/11/05 12:06:25;;;;;;;0.90;0.70;;;13.00;1.00;;;;;;5037895;28;20957;-86
2023/11/05 12:08:52;;;;;;;0.70;0.40;;;13.10;1.00;;;;;;5039423;28;20412;-85
2023/11/05 12:11:19;;;;;;;1.23;0.40;;;13.30;1.00;;;;;;5044729;28;20399;-85
2023/11/05 12:13:48;;;;;;;2.17;0.77;;;13.30;1.00;;;;;;5035912;28;20383;-85
2023/11/05 12:16:17;;;;;;;1.20;0.52;;;13.20;1.00;;;;;;5054766;28;20450;-85
2023/11/05 12:18:43;;;;;;;2.78;0.60;;;13.30;1.00;;;;;;5057998;28;20384;-85
2023/11/05 12:21:10;;;;;;;0.90;0.50;;;13.00;1.00;;;;;;5055730;28;20397;-85
2023/11/05 12:23:37;;;;;;;1.02;0.60;;;13.00;1.00;;;;;;5057702;28;20381;-85
2023/11/05 12:26:05;;;;;;;0.80;0.40;;;13.10;1.00;;;;;;5053642;28;20397;-84
2023/11/05 12:28:31;;;;;;;2.50;0.40;;;13.10;1.00;;;;;;5041484;28;20530;-84
2023/11/05 12:31:01;;;;;;;0.80;0.50;;;13.10;1.00;;;;;;5037978;28;20412;-85
2023/11/05 12:33:27;;;;;;;0.68;0.40;;;13.10;1.00;;;;;;5039332;28;20368;-85
2023/11/05 12:35:55;;;;;;;1.52;0.80;;;13.10;1.00;;;;;;5041256;28;20414;-84
2023/11/05 12:38:22;;;;;;;1.20;0.80;;;12.20;1.00;;;;;;5050216;28;20414;-85
2023/11/05 12:40:48;;;;;;;1.27;0.50;;;13.20;1.00;;;;;;5043702;28;20483;-85
2023/11/05 12:43:13;;;;;;;1.63;0.50;;;13.20;1.00;;;;;;5040083;28;20445;-85
2023/11/05 12:45:39;;;;;;;1.10;0.40;;;13.00;1.00;;;;;;5053118;28;20397;-85
2023/11/05 12:48:05;;;;;;;0.68;0.30;;;13.00;1.00;;;;;;5036340;28;20411;-84
2023/11/05 12:50:30;;;;;;;1.55;0.65;;;13.10;1.00;;;;;;5036306;28;20461;-85
2023/11/05 12:52:56;;;;;;;1.40;0.55;;;13.10;1.00;;;;;;5035437;28;20395;-85
2023/11/05 12:55:21;;;;;;;1.10;0.60;;;13.00;1.00;;;;;;5047596;28;20397;-84